sensor_id;sensor_type;location;lat;lon;timestamp;pressure;altitude;pressure_sealevel;temperature
43292;BMP280;28754;47.700;7.924;2023-08-08T00:00:03;91705.19;;;13.88
43292;BMP280;28754;47.700;7.924;2023-08-08T00:02:51;91694.63;;;13.85
43292;BMP280;28754;47.700;7.924;2023-08-08T00:05:38;91693.88;;;13.84
43292;BMP280;28754;47.700;7.924;2023-08-08T00:08:24;91688.72;;;13.84
43292;BMP280;28754;47.700;7.924;2023-08-08T00:11:11;91693.38;;;13.82
43292;BMP280;28754;47.700;7.924;2023-08-08T00:13:58;91694.38;;;13.86
43292;BMP280;28754;47.700;7.924;2023-08-08T00:16:45;91694.13;;;13.88
43292;BMP280;28754;47.700;7.924;2023-08-08T00:19:31;91692.81;;;13.90
43292;BMP280;28754;47.700;7.924;2023-08-08T00:22:18;91683.28;;;13.91
43292;BMP280;28754;47.700;7.924;2023-08-08T00:25:05;91688.63;;;13.94
43292;BMP280;28754;47.700;7.924;2023-08-08T00:27:52;91681.97;;;13.93
43292;BMP280;28754;47.700;7.924;2023-08-08T00:30:38;91681.97;;;13.93
43292;BMP280;28754;47.700;7.924;2023-08-08T00:33:25;91691.50;;;13.93
43292;BMP280;28754;47.700;7.924;2023-08-08T00:36:14;91682.00;;;13.88
43292;BMP280;28754;47.700;7.924;2023-08-08T00:39:02;91685.59;;;13.92
43292;BMP280;28754;47.700;7.924;2023-08-08T00:41:49;91678.88;;;13.91
43292;BMP280;28754;47.700;7.924;2023-08-08T00:44:35;91684.28;;;13.90
43292;BMP280;28754;47.700;7.924;2023-08-08T00:47:23;91679.97;;;13.85
43292;BMP280;28754;47.700;7.924;2023-08-08T00:50:11;91681.50;;;13.86
43292;BMP280;28754;47.700;7.924;2023-08-08T00:52:58;91689.75;;;13.83
43292;BMP280;28754;47.700;7.924;2023-08-08T00:55:45;91683.63;;;13.79
43292;BMP280;28754;47.700;7.924;2023-08-08T00:58:32;91679.28;;;13.75
43292;BMP280;28754;47.700;7.924;2023-08-08T01:01:19;91680.34;;;13.69
43292;BMP280;28754;47.700;7.924;2023-08-08T01:04:06;91672.63;;;13.69
43292;BMP280;28754;47.700;7.924;2023-08-08T01:10:33;91665.97;;;13.63
43292;BMP280;28754;47.700;7.924;2023-08-08T01:13:23;91668.53;;;13.63
43292;BMP280;28754;47.700;7.924;2023-08-08T01:16:12;91662.13;;;13.61
43292;BMP280;28754;47.700;7.924;2023-08-08T01:19:00;91663.94;;;13.60
43292;BMP280;28754;47.700;7.924;2023-08-08T01:21:48;91660.38;;;13.56
43292;BMP280;28754;47.700;7.924;2023-08-08T01:24:36;91670.91;;;13.55
43292;BMP280;28754;47.700;7.924;2023-08-08T01:27:23;91678.38;;;13.51
43292;BMP280;28754;47.700;7.924;2023-08-08T01:30:10;91666.06;;;13.48
43292;BMP280;28754;47.700;7.924;2023-08-08T01:32:57;91681.75;;;13.47
43292;BMP280;28754;47.700;7.924;2023-08-08T01:35:54;91676.41;;;13.43
43292;BMP280;28754;47.700;7.924;2023-08-08T01:38:46;91685.91;;;13.43
43292;BMP280;28754;47.700;7.924;2023-08-08T01:41:35;91678.97;;;13.38
43292;BMP280;28754;47.700;7.924;2023-08-08T01:44:24;91678.22;;;13.38
43292;BMP280;28754;47.700;7.924;2023-08-08T01:47:12;91668.97;;;13.37
43292;BMP280;28754;47.700;7.924;2023-08-08T01:49:59;91661.78;;;13.34
43292;BMP280;28754;47.700;7.924;2023-08-08T01:52:46;91659.50;;;13.33
43292;BMP280;28754;47.700;7.924;2023-08-08T01:55:32;91661.56;;;13.31
43292;BMP280;28754;47.700;7.924;2023-08-08T01:58:19;91657.72;;;13.28
43292;BMP280;28754;47.700;7.924;2023-08-08T02:09:50;91657.50;;;13.20
43292;BMP280;28754;47.700;7.924;2023-08-08T02:12:38;91659.28;;;13.19
43292;BMP280;28754;47.700;7.924;2023-08-08T02:15:25;91655.44;;;13.17
43292;BMP280;28754;47.700;7.924;2023-08-08T02:18:12;91655.94;;;13.19
43292;BMP280;28754;47.700;7.924;2023-08-08T02:20:58;91652.63;;;13.18
43292;BMP280;28754;47.700;7.924;2023-08-08T02:23:46;91661.09;;;13.19
43292;BMP280;28754;47.700;7.924;2023-08-08T02:26:33;91650.81;;;13.19
43292;BMP280;28754;47.700;7.924;2023-08-08T02:29:20;91652.63;;;13.18
43292;BMP280;28754;47.700;7.924;2023-08-08T02:32:07;91649.53;;;13.16
43292;BMP280;28754;47.700;7.924;2023-08-08T02:34:54;91652.09;;;13.16
43292;BMP280;28754;47.700;7.924;2023-08-08T02:37:40;91648.28;;;13.14
43292;BMP280;28754;47.700;7.924;2023-08-08T02:40:29;91652.38;;;13.15
43292;BMP280;28754;47.700;7.924;2023-08-08T02:43:17;91654.44;;;13.13
43292;BMP280;28754;47.700;7.924;2023-08-08T02:46:04;91650.59;;;13.10
43292;BMP280;28754;47.700;7.924;2023-08-08T02:48:51;91652.41;;;13.10
43292;BMP280;28754;47.700;7.924;2023-08-08T02:51:37;91650.09;;;13.08
43292;BMP280;28754;47.700;7.924;2023-08-08T02:54:24;91648.06;;;13.05
43292;BMP280;28754;47.700;7.924;2023-08-08T02:57:11;91647.03;;;13.02
43292;BMP280;28754;47.700;7.924;2023-08-08T03:00:02;91649.88;;;13.00
43292;BMP280;28754;47.700;7.924;2023-08-08T03:02:53;91659.38;;;13.00
43292;BMP280;28754;47.700;7.924;2023-08-08T03:05:40;91651.16;;;12.98
43292;BMP280;28754;47.700;7.924;2023-08-08T03:08:27;91649.63;;;12.97
43292;BMP280;28754;47.700;7.924;2023-08-08T03:11:15;91648.59;;;12.98
43292;BMP280;28754;47.700;7.924;2023-08-08T03:14:03;91649.09;;;13.00
43292;BMP280;28754;47.700;7.924;2023-08-08T03:16:49;91651.41;;;13.01
43292;BMP280;28754;47.700;7.924;2023-08-08T03:19:36;91644.72;;;13.00
43292;BMP280;28754;47.700;7.924;2023-08-08T03:22:24;91647.59;;;12.99
43292;BMP280;28754;47.700;7.924;2023-08-08T03:25:11;91643.19;;;12.99
43292;BMP280;28754;47.700;7.924;2023-08-08T03:27:58;91639.88;;;12.99
43292;BMP280;28754;47.700;7.924;2023-08-08T03:30:45;91643.19;;;12.99
43292;BMP280;28754;47.700;7.924;2023-08-08T03:33:33;91639.31;;;13.02
43292;BMP280;28754;47.700;7.924;2023-08-08T03:36:23;91640.88;;;13.03
43292;BMP280;28754;47.700;7.924;2023-08-08T03:39:09;91647.53;;;13.03
43292;BMP280;28754;47.700;7.924;2023-08-08T03:41:56;91641.38;;;13.04
43292;BMP280;28754;47.700;7.924;2023-08-08T03:44:43;91642.41;;;13.03
43292;BMP280;28754;47.700;7.924;2023-08-08T03:47:31;91650.13;;;13.03
43292;BMP280;28754;47.700;7.924;2023-08-08T03:50:18;91641.13;;;13.01
43292;BMP280;28754;47.700;7.924;2023-08-08T03:53:05;91647.81;;;13.02
43292;BMP280;28754;47.700;7.924;2023-08-08T03:55:52;91645.75;;;13.04
43292;BMP280;28754;47.700;7.924;2023-08-08T03:58:39;91645.75;;;13.04
43292;BMP280;28754;47.700;7.924;2023-08-08T04:05:54;91640.09;;;13.02
43292;BMP280;28754;47.700;7.924;2023-08-08T04:08:41;91643.44;;;13.03
43292;BMP280;28754;47.700;7.924;2023-08-08T04:11:28;91640.88;;;12.98
43292;BMP280;28754;47.700;7.924;2023-08-08T04:14:15;91644.72;;;13.00
43292;BMP280;28754;47.700;7.924;2023-08-08T04:17:01;91649.63;;;12.97
43292;BMP280;28754;47.700;7.924;2023-08-08T04:19:49;91651.72;;;12.95
43292;BMP280;28754;47.700;7.924;2023-08-08T04:22:37;91654.28;;;12.95
43292;BMP280;28754;47.700;7.924;2023-08-08T04:25:23;91660.19;;;12.95
43292;BMP280;28754;47.700;7.924;2023-08-08T04:28:10;91657.34;;;12.97
43292;BMP280;28754;47.700;7.924;2023-08-08T04:30:57;91664.03;;;12.98
43292;BMP280;28754;47.700;7.924;2023-08-08T04:33:43;91653.75;;;12.98
43292;BMP280;28754;47.700;7.924;2023-08-08T04:36:30;91652.19;;;13.02
43292;BMP280;28754;47.700;7.924;2023-08-08T04:39:17;91667.31;;;13.08
43292;BMP280;28754;47.700;7.924;2023-08-08T04:42:04;91664.25;;;13.06
43292;BMP280;28754;47.700;7.924;2023-08-08T04:44:51;91663.19;;;13.12
43292;BMP280;28754;47.700;7.924;2023-08-08T04:47:37;91663.94;;;13.12
43292;BMP280;28754;47.700;7.924;2023-08-08T04:50:24;91663.69;;;13.14
43292;BMP280;28754;47.700;7.924;2023-08-08T04:53:11;91672.94;;;13.15
43292;BMP280;28754;47.700;7.924;2023-08-08T04:55:58;91663.44;;;13.15
43292;BMP280;28754;47.700;7.924;2023-08-08T04:58:45;91669.09;;;13.17
43292;BMP280;28754;47.700;7.924;2023-08-08T05:01:31;91669.09;;;13.17
43292;BMP280;28754;47.700;7.924;2023-08-08T05:04:18;91665.47;;;13.18
43292;BMP280;28754;47.700;7.924;2023-08-08T05:07:05;91670.81;;;13.27
43292;BMP280;28754;47.700;7.924;2023-08-08T05:09:52;91672.59;;;13.31
43292;BMP280;28754;47.700;7.924;2023-08-08T05:12:39;91678.00;;;13.35
43292;BMP280;28754;47.700;7.924;2023-08-08T05:15:26;91677.97;;;13.39
43292;BMP280;28754;47.700;7.924;2023-08-08T05:18:13;91672.50;;;13.46
43292;BMP280;28754;47.700;7.924;2023-08-08T05:21:00;91665.25;;;13.53
43292;BMP280;28754;47.700;7.924;2023-08-08T05:23:46;91668.81;;;13.62
43292;BMP280;28754;47.700;7.924;2023-08-08T05:26:33;91661.81;;;13.67
43292;BMP280;28754;47.700;7.924;2023-08-08T05:29:23;91664.84;;;13.74
43292;BMP280;28754;47.700;7.924;2023-08-08T05:32:10;91671.53;;;13.80
43292;BMP280;28754;47.700;7.924;2023-08-08T05:34:57;91666.06;;;13.86
43292;BMP280;28754;47.700;7.924;2023-08-08T05:37:44;91665.00;;;13.92
43292;BMP280;28754;47.700;7.924;2023-08-08T05:40:30;91663.91;;;13.98
43292;BMP280;28754;47.700;7.924;2023-08-08T05:43:17;91661.81;;;14.05
43292;BMP280;28754;47.700;7.924;2023-08-08T05:46:04;91654.06;;;14.10
43292;BMP280;28754;47.700;7.924;2023-08-08T05:48:51;91657.06;;;14.17
43292;BMP280;28754;47.700;7.924;2023-08-08T05:51:40;91657.03;;;14.22
43292;BMP280;28754;47.700;7.924;2023-08-08T05:54:27;91660.59;;;14.26
43292;BMP280;28754;47.700;7.924;2023-08-08T05:57:14;91664.94;;;14.30
43292;BMP280;28754;47.700;7.924;2023-08-08T06:00:01;91667.19;;;14.37
43292;BMP280;28754;47.700;7.924;2023-08-08T06:02:50;91662.22;;;14.45
43292;BMP280;28754;47.700;7.924;2023-08-08T06:05:37;91659.63;;;14.45
43292;BMP280;28754;47.700;7.924;2023-08-08T06:08:25;91671.19;;;14.47
43292;BMP280;28754;47.700;7.924;2023-08-08T06:11:11;91673.75;;;14.52
43292;BMP280;28754;47.700;7.924;2023-08-08T06:13:58;91667.97;;;14.60
43292;BMP280;28754;47.700;7.924;2023-08-08T06:16:45;91665.88;;;14.67
43292;BMP280;28754;47.700;7.924;2023-08-08T06:19:32;91665.75;;;14.77
43292;BMP280;28754;47.700;7.924;2023-08-08T06:22:19;91670.78;;;14.87
43292;BMP280;28754;47.700;7.924;2023-08-08T06:25:08;91653.19;;;14.94
43292;BMP280;28754;47.700;7.924;2023-08-08T06:27:55;91663.38;;;15.04
43292;BMP280;28754;47.700;7.924;2023-08-08T06:30:43;91660.75;;;15.09
43292;BMP280;28754;47.700;7.924;2023-08-08T06:33:30;91662.75;;;15.16
43292;BMP280;28754;47.700;7.924;2023-08-08T06:36:16;91663.22;;;15.18
43292;BMP280;28754;47.700;7.924;2023-08-08T06:39:03;91661.84;;;15.26
43292;BMP280;28754;47.700;7.924;2023-08-08T06:41:50;91665.25;;;15.40
43292;BMP280;28754;47.700;7.924;2023-08-08T06:44:49;91663.38;;;15.45
43292;BMP280;28754;47.700;7.924;2023-08-08T06:47:36;91655.38;;;15.46
43292;BMP280;28754;47.700;7.924;2023-08-08T06:50:24;91658.50;;;15.44
43292;BMP280;28754;47.700;7.924;2023-08-08T06:53:11;91660.94;;;15.35
43292;BMP280;28754;47.700;7.924;2023-08-08T06:55:57;91666.88;;;15.36
43292;BMP280;28754;47.700;7.924;2023-08-08T06:58:44;91653.13;;;15.40
43292;BMP280;28754;47.700;7.924;2023-08-08T07:01:31;91664.28;;;15.54
43292;BMP280;28754;47.700;7.924;2023-08-08T07:04:17;91666.81;;;15.77
43292;BMP280;28754;47.700;7.924;2023-08-08T07:07:04;91660.66;;;15.91
43292;BMP280;28754;47.700;7.924;2023-08-08T07:09:51;91657.41;;;15.99
43292;BMP280;28754;47.700;7.924;2023-08-08T07:12:38;91663.00;;;16.06
43292;BMP280;28754;47.700;7.924;2023-08-08T07:15:25;91666.53;;;16.10
43292;BMP280;28754;47.700;7.924;2023-08-08T07:18:12;91659.34;;;16.07
43292;BMP280;28754;47.700;7.924;2023-08-08T07:20:58;91668.16;;;16.06
43292;BMP280;28754;47.700;7.924;2023-08-08T07:23:45;91657.41;;;15.99
43292;BMP280;28754;47.700;7.924;2023-08-08T07:26:32;91659.88;;;15.91
43292;BMP280;28754;47.700;7.924;2023-08-08T07:29:19;91655.28;;;15.88
43292;BMP280;28754;47.700;7.924;2023-08-08T07:32:06;91643.69;;;15.85
43292;BMP280;28754;47.700;7.924;2023-08-08T07:34:52;91649.34;;;15.87
43292;BMP280;28754;47.700;7.924;2023-08-08T07:37:39;91649.25;;;15.92
43292;BMP280;28754;47.700;7.924;2023-08-08T07:40:26;91656.66;;;15.99
43292;BMP280;28754;47.700;7.924;2023-08-08T07:43:13;91647.69;;;16.10
43292;BMP280;28754;47.700;7.924;2023-08-08T07:46:00;91647.56;;;16.19
43292;BMP280;28754;47.700;7.924;2023-08-08T07:48:46;91661.28;;;16.33
43292;BMP280;28754;47.700;7.924;2023-08-08T07:51:33;91660.84;;;16.45
43292;BMP280;28754;47.700;7.924;2023-08-08T07:54:20;91655.09;;;16.48
43292;BMP280;28754;47.700;7.924;2023-08-08T07:57:06;91657.94;;;16.46
43292;BMP280;28754;47.700;7.924;2023-08-08T07:59:53;91656.06;;;16.51
43292;BMP280;28754;47.700;7.924;2023-08-08T08:02:42;91658.53;;;16.56
43292;BMP280;28754;47.700;7.924;2023-08-08T08:05:29;91656.34;;;16.63
43292;BMP280;28754;47.700;7.924;2023-08-08T08:08:15;91644.00;;;16.74
43292;BMP280;28754;47.700;7.924;2023-08-08T08:11:02;91649.97;;;16.87
43292;BMP280;28754;47.700;7.924;2023-08-08T08:13:49;91645.75;;;17.05
43292;BMP280;28754;47.700;7.924;2023-08-08T08:16:36;91658.78;;;17.13
43292;BMP280;28754;47.700;7.924;2023-08-08T08:19:23;91648.44;;;17.26
43292;BMP280;28754;47.700;7.924;2023-08-08T08:22:09;91646.13;;;17.25
43292;BMP280;28754;47.700;7.924;2023-08-08T08:24:56;91648.25;;;17.23
43292;BMP280;28754;47.700;7.924;2023-08-08T08:27:42;91643.81;;;17.23
43292;BMP280;28754;47.700;7.924;2023-08-08T08:30:29;91650.72;;;17.15
43292;BMP280;28754;47.700;7.924;2023-08-08T08:33:16;91654.91;;;17.11
43292;BMP280;28754;47.700;7.924;2023-08-08T08:36:03;91650.66;;;17.19
43292;BMP280;28754;47.700;7.924;2023-08-08T08:38:50;91646.22;;;17.33
43292;BMP280;28754;47.700;7.924;2023-08-08T08:41:36;91644.00;;;17.40
43292;BMP280;28754;47.700;7.924;2023-08-08T08:44:25;91643.81;;;17.37
43292;BMP280;28754;47.700;7.924;2023-08-08T08:47:13;91643.34;;;17.35
43292;BMP280;28754;47.700;7.924;2023-08-08T08:50:00;91644.59;;;17.37
43292;BMP280;28754;47.700;7.924;2023-08-08T08:52:50;91641.88;;;17.42
43292;BMP280;28754;47.700;7.924;2023-08-08T08:55:36;91634.47;;;17.49
43292;BMP280;28754;47.700;7.924;2023-08-08T08:58:25;91639.56;;;17.54
43292;BMP280;28754;47.700;7.924;2023-08-08T09:01:12;91632.28;;;17.56
43292;BMP280;28754;47.700;7.924;2023-08-08T09:04:00;91632.56;;;17.54
43292;BMP280;28754;47.700;7.924;2023-08-08T09:06:50;91643.59;;;17.47
43292;BMP280;28754;47.700;7.924;2023-08-08T09:09:38;91643.19;;;17.53
43292;BMP280;28754;47.700;7.924;2023-08-08T09:12:25;91632.03;;;17.66
43292;BMP280;28754;47.700;7.924;2023-08-08T09:15:12;91627.59;;;17.80
43292;BMP280;28754;47.700;7.924;2023-08-08T09:18:00;91617.19;;;17.93
43292;BMP280;28754;47.700;7.924;2023-08-08T09:20:50;91631.03;;;18.10
43292;BMP280;28754;47.700;7.924;2023-08-08T09:23:37;91626.84;;;18.23
43292;BMP280;28754;47.700;7.924;2023-08-08T09:26:25;91645.41;;;18.16
43292;BMP280;28754;47.700;7.924;2023-08-08T09:29:14;91638.63;;;18.07
43292;BMP280;28754;47.700;7.924;2023-08-08T09:32:05;91629.44;;;18.01
43292;BMP280;28754;47.700;7.924;2023-08-08T09:34:52;91626.66;;;17.97
43292;BMP280;28754;47.700;7.924;2023-08-08T09:37:39;91626.53;;;18.02
43292;BMP280;28754;47.700;7.924;2023-08-08T09:40:27;91633.72;;;18.05
43292;BMP280;28754;47.700;7.924;2023-08-08T09:43:14;91631.03;;;18.10
43292;BMP280;28754;47.700;7.924;2023-08-08T09:46:01;91642.34;;;18.14
43292;BMP280;28754;47.700;7.924;2023-08-08T09:48:49;91624.78;;;18.11
43292;BMP280;28754;47.700;7.924;2023-08-08T09:51:39;91632.56;;;18.11
43292;BMP280;28754;47.700;7.924;2023-08-08T09:54:27;91629.50;;;18.31
43292;BMP280;28754;47.700;7.924;2023-08-08T09:57:14;91627.44;;;18.41
43292;BMP280;28754;47.700;7.924;2023-08-08T10:00:02;91621.69;;;18.53
43292;BMP280;28754;47.700;7.924;2023-08-08T10:02:53;91614.53;;;18.58
43292;BMP280;28754;47.700;7.924;2023-08-08T10:05:40;91619.03;;;18.74
43292;BMP280;28754;47.700;7.924;2023-08-08T10:08:27;91625.34;;;18.90
43292;BMP280;28754;47.700;7.924;2023-08-08T10:11:14;91607.91;;;18.74
43292;BMP280;28754;47.700;7.924;2023-08-08T10:14:02;91625.03;;;18.53
43292;BMP280;28754;47.700;7.924;2023-08-08T10:16:53;91616.41;;;18.36
43292;BMP280;28754;47.700;7.924;2023-08-08T10:19:40;91614.47;;;18.41
43292;BMP280;28754;47.700;7.924;2023-08-08T10:22:27;91624.75;;;18.55
43292;BMP280;28754;47.700;7.924;2023-08-08T10:25:32;91612.53;;;18.55
43292;BMP280;28754;47.700;7.924;2023-08-08T10:28:21;91608.06;;;18.47
43292;BMP280;28754;47.700;7.924;2023-08-08T10:31:19;91622.81;;;18.38
43292;BMP280;28754;47.700;7.924;2023-08-08T10:34:06;91624.22;;;18.44
43292;BMP280;28754;47.700;7.924;2023-08-08T10:36:54;91614.16;;;18.43
43292;BMP280;28754;47.700;7.924;2023-08-08T10:39:57;91620.75;;;18.49
43292;BMP280;28754;47.700;7.924;2023-08-08T10:42:47;91612.13;;;18.61
43292;BMP280;28754;47.700;7.924;2023-08-08T10:45:35;91608.69;;;18.83
43292;BMP280;28754;47.700;7.924;2023-08-08T10:48:22;91605.25;;;18.95
43292;BMP280;28754;47.700;7.924;2023-08-08T10:51:09;91612.06;;;18.91
43292;BMP280;28754;47.700;7.924;2023-08-08T10:53:56;91607.34;;;18.93
43292;BMP280;28754;47.700;7.924;2023-08-08T10:56:52;91613.34;;;18.94
43292;BMP280;28754;47.700;7.924;2023-08-08T10:59:39;91621.22;;;18.89
43292;BMP280;28754;47.700;7.924;2023-08-08T11:02:26;91604.59;;;18.90
43292;BMP280;28754;47.700;7.924;2023-08-08T11:05:14;91608.31;;;18.97
43292;BMP280;28754;47.700;7.924;2023-08-08T11:08:02;91602.84;;;19.07
43292;BMP280;28754;47.700;7.924;2023-08-08T11:10:52;91607.13;;;19.20
43292;BMP280;28754;47.700;7.924;2023-08-08T11:13:39;91607.63;;;19.30
43292;BMP280;28754;47.700;7.924;2023-08-08T11:16:26;91617.88;;;19.44
43292;BMP280;28754;47.700;7.924;2023-08-08T11:19:13;91599.41;;;19.62
43292;BMP280;28754;47.700;7.924;2023-08-08T11:22:00;91604.44;;;19.50
43292;BMP280;28754;47.700;7.924;2023-08-08T11:24:47;91612.53;;;19.32
43292;BMP280;28754;47.700;7.924;2023-08-08T11:27:33;91618.00;;;19.30
43292;BMP280;28754;47.700;7.924;2023-08-08T11:30:22;91605.50;;;19.32
43292;BMP280;28754;47.700;7.924;2023-08-08T11:33:09;91614.06;;;19.41
43292;BMP280;28754;47.700;7.924;2023-08-08T11:35:58;91612.84;;;19.47
43292;BMP280;28754;47.700;7.924;2023-08-08T11:38:46;91614.41;;;19.48
43292;BMP280;28754;47.700;7.924;2023-08-08T11:41:34;91600.97;;;19.55
43292;BMP280;28754;47.700;7.924;2023-08-08T11:44:22;91595.28;;;19.78
43292;BMP280;28754;47.700;7.924;2023-08-08T11:47:08;91602.06;;;19.96
43292;BMP280;28754;47.700;7.924;2023-08-08T11:49:56;91595.00;;;20.13
43292;BMP280;28754;47.700;7.924;2023-08-08T11:52:46;91598.34;;;20.30
43292;BMP280;28754;47.700;7.924;2023-08-08T11:55:33;91589.16;;;20.32
43292;BMP280;28754;47.700;7.924;2023-08-08T11:58:20;91595.28;;;20.28
43292;BMP280;28754;47.700;7.924;2023-08-08T12:01:06;91597.72;;;20.25
43292;BMP280;28754;47.700;7.924;2023-08-08T12:03:54;91583.50;;;20.30
43292;BMP280;28754;47.700;7.924;2023-08-08T12:06:41;91591.75;;;20.32
43292;BMP280;28754;47.700;7.924;2023-08-08T12:09:32;91593.25;;;20.33
43292;BMP280;28754;47.700;7.924;2023-08-08T12:12:19;91587.00;;;20.43
43292;BMP280;28754;47.700;7.924;2023-08-08T12:15:07;91588.19;;;20.54
43292;BMP280;28754;47.700;7.924;2023-08-08T12:17:55;91587.53;;;20.57
43292;BMP280;28754;47.700;7.924;2023-08-08T12:20:41;91596.56;;;20.67
43292;BMP280;28754;47.700;7.924;2023-08-08T12:23:28;91595.00;;;20.83
43292;BMP280;28754;47.700;7.924;2023-08-08T12:26:15;91593.19;;;21.04
43292;BMP280;28754;47.700;7.924;2023-08-08T12:29:01;91592.59;;;21.07
43292;BMP280;28754;47.700;7.924;2023-08-08T12:31:48;91587.69;;;21.05
43292;BMP280;28754;47.700;7.924;2023-08-08T12:34:35;91593.66;;;21.06
43292;BMP280;28754;47.700;7.924;2023-08-08T12:37:23;91592.41;;;21.12
43292;BMP280;28754;47.700;7.924;2023-08-08T12:40:11;91586.97;;;21.25
43292;BMP280;28754;47.700;7.924;2023-08-08T12:42:58;91585.72;;;21.31
43292;BMP280;28754;47.700;7.924;2023-08-08T12:45:46;91586.81;;;21.30
43292;BMP280;28754;47.700;7.924;2023-08-08T12:48:34;91586.75;;;21.10
43292;BMP280;28754;47.700;7.924;2023-08-08T12:51:20;91590.09;;;20.82
43292;BMP280;28754;47.700;7.924;2023-08-08T12:54:07;91582.22;;;20.62
43292;BMP280;28754;47.700;7.924;2023-08-08T12:56:54;91577.31;;;20.52
43292;BMP280;28754;47.700;7.924;2023-08-08T12:59:41;91585.28;;;20.55
43292;BMP280;28754;47.700;7.924;2023-08-08T13:02:28;91582.94;;;20.70
43292;BMP280;28754;47.700;7.924;2023-08-08T13:05:14;91572.31;;;20.84
43292;BMP280;28754;47.700;7.924;2023-08-08T13:08:01;91574.72;;;20.97
43292;BMP280;28754;47.700;7.924;2023-08-08T13:10:48;91573.81;;;20.93
43292;BMP280;28754;47.700;7.924;2023-08-08T13:13:34;91569.00;;;20.75
43292;BMP280;28754;47.700;7.924;2023-08-08T13:16:21;91571.72;;;20.78
43292;BMP280;28754;47.700;7.924;2023-08-08T13:19:08;91562.97;;;20.83
43292;BMP280;28754;47.700;7.924;2023-08-08T13:21:55;91571.66;;;20.95
43292;BMP280;28754;47.700;7.924;2023-08-08T13:24:42;91570.66;;;21.08
43292;BMP280;28754;47.700;7.924;2023-08-08T13:27:28;91570.06;;;21.11
43292;BMP280;28754;47.700;7.924;2023-08-08T13:30:15;91570.81;;;21.11
43292;BMP280;28754;47.700;7.924;2023-08-08T13:33:03;91568.53;;;21.10
43292;BMP280;28754;47.700;7.924;2023-08-08T13:35:50;91579.31;;;21.00
43292;BMP280;28754;47.700;7.924;2023-08-08T13:38:37;91566.72;;;21.02
43292;BMP280;28754;47.700;7.924;2023-08-08T13:41:25;91569.28;;;21.10
43292;BMP280;28754;47.700;7.924;2023-08-08T13:44:11;91558.81;;;21.19
43292;BMP280;28754;47.700;7.924;2023-08-08T13:46:58;91558.75;;;21.27
43292;BMP280;28754;47.700;7.924;2023-08-08T13:49:45;91569.06;;;21.24
43292;BMP280;28754;47.700;7.924;2023-08-08T13:52:31;91563.75;;;21.12
43292;BMP280;28754;47.700;7.924;2023-08-08T13:55:19;91554.88;;;21.13
43292;BMP280;28754;47.700;7.924;2023-08-08T13:58:07;91560.81;;;21.22
43292;BMP280;28754;47.700;7.924;2023-08-08T14:00:55;91552.81;;;21.27
43292;BMP280;28754;47.700;7.924;2023-08-08T14:03:44;91556.75;;;21.33
43292;BMP280;28754;47.700;7.924;2023-08-08T14:06:31;91556.75;;;21.33
43292;BMP280;28754;47.700;7.924;2023-08-08T14:09:18;91559.34;;;21.33
43292;BMP280;28754;47.700;7.924;2023-08-08T14:12:05;91562.72;;;21.33
43292;BMP280;28754;47.700;7.924;2023-08-08T14:14:51;91563.47;;;21.33
43292;BMP280;28754;47.700;7.924;2023-08-08T14:17:38;91549.53;;;21.38
43292;BMP280;28754;47.700;7.924;2023-08-08T14:20:26;91552.59;;;21.40
43292;BMP280;28754;47.700;7.924;2023-08-08T14:23:12;91548.13;;;21.40
43292;BMP280;28754;47.700;7.924;2023-08-08T14:25:59;91548.13;;;21.40
43292;BMP280;28754;47.700;7.924;2023-08-08T14:28:46;91548.41;;;21.47
43292;BMP280;28754;47.700;7.924;2023-08-08T14:31:32;91553.63;;;21.47
43292;BMP280;28754;47.700;7.924;2023-08-08T14:34:28;91548.41;;;21.47
43292;BMP280;28754;47.700;7.924;2023-08-08T14:37:15;91544.50;;;21.53
43292;BMP280;28754;47.700;7.924;2023-08-08T14:40:02;91540.63;;;21.59
43292;BMP280;28754;47.700;7.924;2023-08-08T14:42:50;91544.84;;;21.72
43292;BMP280;28754;47.700;7.924;2023-08-08T14:45:37;91543.56;;;21.78
43292;BMP280;28754;47.700;7.924;2023-08-08T14:48:25;91553.47;;;21.84
43292;BMP280;28754;47.700;7.924;2023-08-08T14:51:11;91553.09;;;21.94
43292;BMP280;28754;47.700;7.924;2023-08-08T14:54:03;91550.16;;;21.96
43292;BMP280;28754;47.700;7.924;2023-08-08T14:56:50;91547.00;;;21.90
43292;BMP280;28754;47.700;7.924;2023-08-08T14:59:36;91543.06;;;21.84
43292;BMP280;28754;47.700;7.924;2023-08-08T15:02:23;91552.91;;;21.79
43292;BMP280;28754;47.700;7.924;2023-08-08T15:05:10;91544.63;;;21.77
43292;BMP280;28754;47.700;7.924;2023-08-08T15:07:57;91544.97;;;21.75
43292;BMP280;28754;47.700;7.924;2023-08-08T15:10:44;91547.00;;;21.70
43292;BMP280;28754;47.700;7.924;2023-08-08T15:13:31;91552.22;;;21.70
43292;BMP280;28754;47.700;7.924;2023-08-08T15:16:18;91545.94;;;21.71
43292;BMP280;28754;47.700;7.924;2023-08-08T15:19:04;91556.16;;;21.76
43292;BMP280;28754;47.700;7.924;2023-08-08T15:21:54;91547.22;;;21.77
43292;BMP280;28754;47.700;7.924;2023-08-08T15:24:40;91539.41;;;21.77
43292;BMP280;28754;47.700;7.924;2023-08-08T15:27:27;91544.53;;;21.73
43292;BMP280;28754;47.700;7.924;2023-08-08T15:30:14;91544.84;;;21.72
43292;BMP280;28754;47.700;7.924;2023-08-08T15:33:00;91547.63;;;21.67
43292;BMP280;28754;47.700;7.924;2023-08-08T15:35:47;91544.91;;;21.64
43292;BMP280;28754;47.700;7.924;2023-08-08T15:38:34;91542.19;;;21.60
43292;BMP280;28754;47.700;7.924;2023-08-08T15:41:20;91540.19;;;21.57
43292;BMP280;28754;47.700;7.924;2023-08-08T15:44:07;91545.59;;;21.52
43292;BMP280;28754;47.700;7.924;2023-08-08T15:46:54;91541.03;;;21.49
43292;BMP280;28754;47.700;7.924;2023-08-08T15:49:40;91544.72;;;21.48
43292;BMP280;28754;47.700;7.924;2023-08-08T15:52:27;91541.66;;;21.46
43292;BMP280;28754;47.700;7.924;2023-08-08T15:55:14;91539.50;;;21.48
43292;BMP280;28754;47.700;7.924;2023-08-08T15:58:00;91539.50;;;21.48
43292;BMP280;28754;47.700;7.924;2023-08-08T16:00:48;91540.16;;;21.45
43292;BMP280;28754;47.700;7.924;2023-08-08T16:03:35;91538.16;;;21.42
43292;BMP280;28754;47.700;7.924;2023-08-08T16:06:22;91545.41;;;21.37
43292;BMP280;28754;47.700;7.924;2023-08-08T16:09:09;91526.75;;;21.27
43292;BMP280;28754;47.700;7.924;2023-08-08T16:11:56;91543.47;;;21.26
43292;BMP280;28754;47.700;7.924;2023-08-08T16:14:44;91538.44;;;21.21
43292;BMP280;28754;47.700;7.924;2023-08-08T16:17:31;91541.88;;;21.13
43292;BMP280;28754;47.700;7.924;2023-08-08T16:20:18;91540.19;;;21.08